createdAt,value
2023-04-09T00:02:02.480Z,14.82
2023-04-09T00:04:29.154Z,13.85
2023-04-09T00:06:55.804Z,13.65
2023-04-09T00:09:22.444Z,14.00
2023-04-09T00:11:49.050Z,14.30
2023-04-09T00:14:15.806Z,14.20
2023-04-09T00:16:42.573Z,13.48
2023-04-09T00:19:09.177Z,14.38
2023-04-09T00:21:36.070Z,13.85
2023-04-09T00:24:02.704Z,14.07
2023-04-09T00:26:29.321Z,15.00
2023-04-09T00:28:55.982Z,14.98
2023-04-09T00:31:22.774Z,13.90
2023-04-09T00:33:49.470Z,14.55
2023-04-09T00:36:16.266Z,14.82
2023-04-09T00:38:43.002Z,14.77
2023-04-09T00:41:09.854Z,15.77
2023-04-09T00:43:36.457Z,15.85
2023-04-09T00:46:04.514Z,14.82
2023-04-09T00:48:31.456Z,15.10
2023-04-09T00:50:58.203Z,15.30
2023-04-09T00:53:25.601Z,15.07
2023-04-09T00:55:53.378Z,15.38
2023-04-09T00:58:20.023Z,15.07
2023-04-09T01:00:46.764Z,14.80
2023-04-09T01:03:14.077Z,14.32
2023-04-09T01:05:59.246Z,15.35
2023-04-09T01:08:33.996Z,15.80
2023-04-09T01:11:16.359Z,15.15
2023-04-09T01:13:54.616Z,16.45
2023-04-09T01:16:24.160Z,16.55
2023-04-09T01:18:58.493Z,15.40
2023-04-09T01:21:33.762Z,16.33
2023-04-09T01:24:42.741Z,16.73
2023-04-09T01:27:10.002Z,16.98
2023-04-09T01:29:46.477Z,17.17
2023-04-09T01:34:42.623Z,15.85
2023-04-09T01:37:09.826Z,16.58
2023-04-09T01:39:37.772Z,18.23
2023-04-09T01:42:05.666Z,18.73
2023-04-09T01:44:33.111Z,18.10
2023-04-09T01:47:01.551Z,18.10
2023-04-09T01:49:29.153Z,18.38
2023-04-09T01:51:56.054Z,16.73
2023-04-09T01:54:22.765Z,17.45
2023-04-09T01:56:49.428Z,16.83
2023-04-09T01:59:16.223Z,15.85
2023-04-09T02:01:48.151Z,18.08
2023-04-09T02:04:30.876Z,18.40
2023-04-09T02:07:15.447Z,18.23
2023-04-09T02:09:44.582Z,18.70
2023-04-09T02:12:14.474Z,18.55
2023-04-09T02:14:41.516Z,16.88
2023-04-09T02:17:08.371Z,18.25
2023-04-09T02:19:42.176Z,19.08
2023-04-09T02:22:09.621Z,18.45
2023-04-09T02:24:36.628Z,17.92
2023-04-09T02:27:04.077Z,17.67
2023-04-09T02:29:31.406Z,18.35
2023-04-09T02:31:58.034Z,18.58
2023-04-09T02:34:24.979Z,18.55
2023-04-09T02:36:51.642Z,17.88
2023-04-09T02:39:18.451Z,18.35
2023-04-09T02:41:45.132Z,18.38
2023-04-09T02:44:11.747Z,18.85
2023-04-09T02:46:39.232Z,19.63
2023-04-09T02:49:05.851Z,18.88
2023-04-09T02:51:35.304Z,18.83
2023-04-09T02:54:02.343Z,18.63
2023-04-09T02:56:28.981Z,18.35
2023-04-09T02:58:55.562Z,19.02
2023-04-09T03:01:22.282Z,19.55
2023-04-09T03:03:50.161Z,20.17
2023-04-09T03:06:18.355Z,20.60
2023-04-09T03:08:45.200Z,20.45
2023-04-09T03:11:11.795Z,21.25
2023-04-09T03:13:38.471Z,21.90
2023-04-09T03:16:05.639Z,22.73
2023-04-09T03:18:32.358Z,21.60
2023-04-09T03:20:58.961Z,21.67
2023-04-09T03:23:25.598Z,21.33
2023-04-09T03:26:03.855Z,21.13
2023-04-09T03:28:31.150Z,21.30
2023-04-09T03:30:58.307Z,21.80
2023-04-09T03:33:25.736Z,20.67
2023-04-09T03:35:53.396Z,19.00
2023-04-09T03:38:20.142Z,19.88
2023-04-09T03:40:46.890Z,20.77
2023-04-09T03:43:13.583Z,19.77
2023-04-09T03:45:40.279Z,19.92
2023-04-09T03:48:06.985Z,18.95
2023-04-09T03:50:41.566Z,19.70
2023-04-09T03:53:08.557Z,17.98
2023-04-09T03:55:35.284Z,19.30
2023-04-09T03:58:01.983Z,17.85
2023-04-09T04:00:28.759Z,17.48
2023-04-09T04:02:55.495Z,17.75
2023-04-09T04:05:28.149Z,18.10
2023-04-09T04:07:55.088Z,17.95
2023-04-09T04:10:21.722Z,18.90
2023-04-09T04:12:48.682Z,18.52
2023-04-09T04:15:15.566Z,18.15
2023-04-09T04:17:42.231Z,18.75
2023-04-09T04:20:09.518Z,17.75
2023-04-09T04:22:36.092Z,17.63
2023-04-09T04:25:04.529Z,18.73
2023-04-09T04:27:31.193Z,17.40
2023-04-09T04:30:00.009Z,18.85
2023-04-09T04:32:26.977Z,18.50
2023-04-09T04:34:54.289Z,18.02
2023-04-09T04:37:21.405Z,19.23
2023-04-09T04:39:47.993Z,18.23
2023-04-09T04:42:14.578Z,19.40
2023-04-09T04:44:41.290Z,18.50
2023-04-09T04:47:07.935Z,18.15
2023-04-09T04:49:34.571Z,18.15
2023-04-09T04:52:01.249Z,18.83
2023-04-09T04:54:27.894Z,18.90
2023-04-09T04:56:54.535Z,18.48
2023-04-09T04:59:21.108Z,19.17
2023-04-09T05:01:47.825Z,19.20
2023-04-09T05:04:14.439Z,18.70
2023-04-09T05:06:41.116Z,18.58
2023-04-09T05:09:07.733Z,18.98
2023-04-09T05:11:34.291Z,20.27
2023-04-09T05:14:00.984Z,19.08
2023-04-09T05:16:27.590Z,19.00
2023-04-09T05:18:54.615Z,18.17
2023-04-09T05:21:21.559Z,20.02
2023-04-09T05:23:48.128Z,19.20
2023-04-09T05:26:14.731Z,19.15
2023-04-09T05:28:41.472Z,19.77
2023-04-09T05:31:13.366Z,21.13
2023-04-09T05:33:40.258Z,19.50
2023-04-09T05:36:07.433Z,19.08
2023-04-09T05:38:34.834Z,20.02
2023-04-09T05:41:01.460Z,19.58
2023-04-09T05:43:28.101Z,20.25
2023-04-09T05:45:54.703Z,18.83
2023-04-09T05:48:21.913Z,20.13
2023-04-09T05:50:55.485Z,20.35
2023-04-09T05:53:23.138Z,20.15
2023-04-09T05:55:49.739Z,20.38
2023-04-09T05:58:16.559Z,20.95
2023-04-09T06:00:43.183Z,21.88
2023-04-09T06:03:10.274Z,22.13
2023-04-09T06:05:37.276Z,21.58
2023-04-09T06:08:03.979Z,20.27
2023-04-09T06:10:33.107Z,21.67
2023-04-09T06:12:59.732Z,22.23
2023-04-09T06:15:26.332Z,22.48
2023-04-09T06:17:52.985Z,21.45
2023-04-09T06:20:19.887Z,21.63
2023-04-09T06:22:46.473Z,21.50
2023-04-09T06:25:13.075Z,21.38
2023-04-09T06:27:39.691Z,22.75
2023-04-09T06:30:07.043Z,22.73
2023-04-09T06:32:40.386Z,22.02
2023-04-09T06:35:13.990Z,23.10
2023-04-09T06:37:40.885Z,23.38
2023-04-09T06:40:08.134Z,24.13
2023-04-09T06:42:34.846Z,23.55
2023-04-09T06:45:01.486Z,24.95
2023-04-09T06:47:28.119Z,22.48
2023-04-09T06:49:54.745Z,24.98
2023-04-09T06:52:21.339Z,25.88
2023-04-09T06:54:47.975Z,25.92
2023-04-09T06:57:14.568Z,26.60
2023-04-09T06:59:41.216Z,26.70
2023-04-09T07:02:08.287Z,25.27
2023-04-09T07:04:35.202Z,26.33
2023-04-09T07:07:01.839Z,25.20
2023-04-09T07:09:28.555Z,28.38
2023-04-09T07:11:55.737Z,25.27
2023-04-09T07:14:22.376Z,26.23
2023-04-09T07:16:48.998Z,25.02
2023-04-09T07:19:15.611Z,24.27
2023-04-09T07:21:42.378Z,25.52
2023-04-09T07:24:08.997Z,25.20
2023-04-09T07:26:35.757Z,26.02
2023-04-09T07:29:03.726Z,24.88
2023-04-09T07:31:30.575Z,24.85
2023-04-09T07:33:57.378Z,25.02
2023-04-09T07:36:24.120Z,24.88
2023-04-09T07:38:51.245Z,26.70
2023-04-09T07:41:18.079Z,24.88
2023-04-09T07:43:44.711Z,25.73
2023-04-09T07:46:11.339Z,25.35
2023-04-09T07:48:37.971Z,24.27
2023-04-09T07:51:06.110Z,25.70
2023-04-09T07:53:32.722Z,25.65
2023-04-09T07:55:59.400Z,26.27
2023-04-09T07:58:26.032Z,25.05
2023-04-09T08:00:52.660Z,26.63
2023-04-09T08:03:19.502Z,26.35
2023-04-09T08:05:46.642Z,26.40
2023-04-09T08:08:13.253Z,27.67
2023-04-09T08:10:39.798Z,27.25
2023-04-09T08:13:06.609Z,25.67
2023-04-09T08:15:33.394Z,26.63
2023-04-09T08:18:00.127Z,25.90
2023-04-09T08:20:27.893Z,25.25
2023-04-09T08:22:54.512Z,27.17
2023-04-09T08:25:22.345Z,25.60
2023-04-09T08:27:48.953Z,22.95
2023-04-09T08:30:18.283Z,25.20
2023-04-09T08:32:45.668Z,23.60
2023-04-09T08:35:13.185Z,26.27
2023-04-09T08:37:39.836Z,26.02
2023-04-09T08:40:07.155Z,27.48
2023-04-09T08:42:35.556Z,24.63
2023-04-09T08:45:05.760Z,24.40
2023-04-09T08:47:33.360Z,24.17
2023-04-09T08:50:00.203Z,23.58
2023-04-09T08:52:34.561Z,24.15
2023-04-09T08:55:01.623Z,22.85
2023-04-09T08:57:28.335Z,24.17
2023-04-09T08:59:55.032Z,24.23
2023-04-09T09:02:21.780Z,22.98
2023-04-09T09:04:50.183Z,22.50
2023-04-09T09:07:17.531Z,24.65
2023-04-09T09:10:10.489Z,24.15
2023-04-09T09:12:39.307Z,22.60
2023-04-09T09:15:25.317Z,22.70
2023-04-09T09:18:00.608Z,25.20
2023-04-09T09:20:27.724Z,24.50
2023-04-09T09:22:56.598Z,24.48
2023-04-09T09:25:25.887Z,24.48
2023-04-09T09:27:54.222Z,24.42
2023-04-09T09:30:26.038Z,22.20
2023-04-09T09:33:08.442Z,22.70
2023-04-09T09:35:48.587Z,22.52
2023-04-09T09:38:16.345Z,22.60
2023-04-09T09:40:43.857Z,21.98
2023-04-09T09:43:11.882Z,19.98
2023-04-09T09:45:41.046Z,19.92
2023-04-09T09:48:11.424Z,19.50
2023-04-09T09:50:39.627Z,17.92
2023-04-09T09:53:07.035Z,17.65
2023-04-09T09:55:37.918Z,18.90
2023-04-09T09:58:12.108Z,18.85
2023-04-09T10:00:40.481Z,19.77
2023-04-09T10:03:23.473Z,18.33
2023-04-09T10:05:51.556Z,17.00
2023-04-09T10:08:18.327Z,16.55
2023-04-09T10:10:46.729Z,15.35
2023-04-09T10:13:25.570Z,15.98
2023-04-09T10:15:53.234Z,15.18
2023-04-09T10:18:20.075Z,15.07
2023-04-09T10:20:57.248Z,16.00
2023-04-09T10:23:39.099Z,15.40
2023-04-09T10:26:06.230Z,16.83
2023-04-09T10:28:33.273Z,16.00
2023-04-09T10:31:00.772Z,15.88
2023-04-09T10:33:28.930Z,15.95
2023-04-09T10:36:00.772Z,15.57
2023-04-09T10:38:46.998Z,15.80
2023-04-09T10:41:33.314Z,15.65
2023-04-09T10:43:59.904Z,15.23
2023-04-09T10:46:29.428Z,13.85
2023-04-09T10:49:12.159Z,13.85
2023-04-09T10:51:40.046Z,14.07
2023-04-09T10:54:27.448Z,12.70
2023-04-09T10:57:09.123Z,12.63
2023-04-09T10:59:36.885Z,14.35
2023-04-09T11:02:08.240Z,13.95
2023-04-09T11:04:46.305Z,14.40
2023-04-09T11:07:15.917Z,14.20
2023-04-09T11:09:42.499Z,15.68
2023-04-09T11:12:11.803Z,17.92
2023-04-09T11:14:38.377Z,16.58
2023-04-09T11:17:05.934Z,17.60
2023-04-09T11:19:36.150Z,20.73
2023-04-09T11:22:06.962Z,20.23
2023-04-09T11:24:43.040Z,20.30
2023-04-09T11:27:09.873Z,22.40
2023-04-09T11:29:36.757Z,20.38
2023-04-09T11:32:05.337Z,20.58
2023-04-09T11:34:32.505Z,19.10
2023-04-09T11:36:59.899Z,19.70
2023-04-09T11:39:26.614Z,18.13
2023-04-09T11:41:53.398Z,17.38
2023-04-09T11:44:22.814Z,20.42
2023-04-09T11:46:50.445Z,19.33
2023-04-09T11:49:17.605Z,18.85
2023-04-09T11:51:44.352Z,18.55
2023-04-09T11:54:11.988Z,18.35
2023-04-09T11:56:38.664Z,17.95
2023-04-09T11:59:05.582Z,17.50
2023-04-09T12:01:33.722Z,17.25
2023-04-09T12:04:01.353Z,17.90
2023-04-09T12:06:28.813Z,18.13
2023-04-09T12:08:59.420Z,17.27
2023-04-09T12:11:31.318Z,18.23
2023-04-09T12:14:02.921Z,17.45
2023-04-09T12:16:34.474Z,16.08
2023-04-09T12:19:03.022Z,18.40
2023-04-09T12:22:05.087Z,17.45
2023-04-09T12:24:31.725Z,15.95
2023-04-09T12:26:58.356Z,16.17
2023-04-09T12:29:26.774Z,16.13
2023-04-09T12:31:54.043Z,15.77
2023-04-09T12:34:20.742Z,15.98
2023-04-09T12:36:47.317Z,15.52
2023-04-09T12:39:13.920Z,14.77
2023-04-09T12:41:40.507Z,14.23
2023-04-09T12:44:07.872Z,12.50
2023-04-09T12:46:34.642Z,11.02
2023-04-09T12:49:01.462Z,9.85
2023-04-09T12:51:28.547Z,10.32
2023-04-09T12:53:55.397Z,11.55
2023-04-09T12:56:22.211Z,11.43
2023-04-09T12:58:48.957Z,10.95
2023-04-09T13:01:15.577Z,11.68
2023-04-09T13:03:42.560Z,11.38
2023-04-09T13:06:09.285Z,11.20
2023-04-09T13:08:36.468Z,11.18
2023-04-09T13:11:04.359Z,11.40
2023-04-09T13:13:31.553Z,11.05
2023-04-09T13:15:58.221Z,11.10
2023-04-09T13:18:24.832Z,10.65
2023-04-09T13:20:51.578Z,9.98
2023-04-09T13:23:18.228Z,10.02
2023-04-09T13:25:44.876Z,9.52
2023-04-09T13:28:11.480Z,9.43
2023-04-09T13:30:38.221Z,10.90
2023-04-09T13:33:04.930Z,10.63
2023-04-09T13:35:31.721Z,10.25
2023-04-09T13:37:58.395Z,10.50
2023-04-09T13:40:25.266Z,11.25
2023-04-09T13:42:52.070Z,10.18
2023-04-09T13:45:20.597Z,9.52
2023-04-09T13:47:47.234Z,10.82
2023-04-09T13:50:32.470Z,10.48
2023-04-09T13:52:59.002Z,10.20
2023-04-09T13:55:25.604Z,9.90
2023-04-09T13:57:52.088Z,10.02
2023-04-09T14:00:19.965Z,9.85
2023-04-09T14:02:46.708Z,11.75
2023-04-09T14:05:13.291Z,13.10
2023-04-09T14:07:39.738Z,9.80
2023-04-09T14:10:06.687Z,9.68
2023-04-09T14:12:33.290Z,9.73
2023-04-09T14:14:59.801Z,10.18
2023-04-09T14:17:26.467Z,10.02
2023-04-09T14:19:52.967Z,10.50
2023-04-09T14:22:19.508Z,10.73
2023-04-09T14:24:46.021Z,8.93
2023-04-09T14:27:12.559Z,9.60
2023-04-09T14:29:39.626Z,10.32
2023-04-09T14:32:20.559Z,9.88
2023-04-09T14:34:47.241Z,9.82
2023-04-09T14:37:13.794Z,9.63
2023-04-09T14:39:40.303Z,10.02
2023-04-09T14:42:06.808Z,10.05
2023-04-09T14:44:33.326Z,9.68
2023-04-09T14:47:00.057Z,10.02
2023-04-09T14:49:27.080Z,9.82
2023-04-09T14:51:53.571Z,10.35
2023-04-09T14:54:20.109Z,11.20
2023-04-09T14:56:47.194Z,11.55
2023-04-09T14:59:13.986Z,12.43
2023-04-09T15:01:40.645Z,11.98
2023-04-09T15:04:08.183Z,11.07
2023-04-09T15:06:34.898Z,11.70
2023-04-09T15:09:01.750Z,11.30
2023-04-09T15:11:28.878Z,12.07
2023-04-09T15:13:56.346Z,11.40
2023-04-09T15:16:27.118Z,10.93
2023-04-09T15:18:56.052Z,11.30
2023-04-09T15:21:23.172Z,11.70
2023-04-09T15:23:53.197Z,12.43
2023-04-09T15:26:19.743Z,11.23
2023-04-09T15:28:46.320Z,11.93
2023-04-09T15:31:13.065Z,11.50
2023-04-09T15:33:42.380Z,11.25
2023-04-09T15:36:09.070Z,12.80
2023-04-09T15:38:35.656Z,13.98
2023-04-09T15:41:02.210Z,12.98
2023-04-09T15:43:28.624Z,13.05
2023-04-09T15:45:55.181Z,14.07
2023-04-09T15:48:21.741Z,13.77
2023-04-09T15:50:48.239Z,14.07
2023-04-09T15:53:15.746Z,12.77
2023-04-09T15:55:42.248Z,13.27
2023-04-09T15:58:09.343Z,13.57
2023-04-09T16:00:35.941Z,13.80
2023-04-09T16:03:02.534Z,13.07
2023-04-09T16:05:29.063Z,14.98
2023-04-09T16:07:57.552Z,16.00
2023-04-09T16:10:25.634Z,22.23
2023-04-09T16:12:52.161Z,16.20
2023-04-09T16:15:18.755Z,16.20
2023-04-09T16:17:45.252Z,12.80
2023-04-09T16:20:11.853Z,18.60
2023-04-09T16:22:38.455Z,16.48
2023-04-09T16:25:05.347Z,14.13
2023-04-09T16:27:31.810Z,16.38
2023-04-09T16:29:58.354Z,14.10
2023-04-09T16:32:24.986Z,13.02
2023-04-09T16:34:51.860Z,12.55
2023-04-09T16:37:18.348Z,13.00
2023-04-09T16:39:44.796Z,11.75
2023-04-09T16:42:12.183Z,12.27
2023-04-09T16:44:38.703Z,12.43
2023-04-09T16:47:05.423Z,12.52
2023-04-09T16:49:31.959Z,12.60
2023-04-09T16:51:58.426Z,12.13
2023-04-09T16:54:25.209Z,12.95
2023-04-09T16:56:51.714Z,11.77
2023-04-09T16:59:18.534Z,11.70
2023-04-09T17:01:45.132Z,11.00
2023-04-09T17:04:11.994Z,11.82
2023-04-09T17:06:38.622Z,12.65
2023-04-09T17:09:06.532Z,14.65
2023-04-09T17:11:33.149Z,12.23
2023-04-09T17:13:59.649Z,13.75
2023-04-09T17:16:26.252Z,13.63
2023-04-09T17:18:53.008Z,12.23
2023-04-09T17:21:19.958Z,12.88
2023-04-09T17:23:46.644Z,13.00
2023-04-09T17:26:13.207Z,11.82
2023-04-09T17:28:39.832Z,13.48
2023-04-09T17:31:12.059Z,13.45
2023-04-09T17:33:38.648Z,12.82
2023-04-09T17:36:05.226Z,13.23
2023-04-09T17:38:32.009Z,13.52
2023-04-09T17:40:58.506Z,12.55
2023-04-09T17:43:25.004Z,14.32
2023-04-09T17:45:51.500Z,14.80
2023-04-09T17:48:18.321Z,15.85
2023-04-09T17:50:44.916Z,16.30
2023-04-09T17:53:11.620Z,16.77
2023-04-09T17:55:38.165Z,16.10
2023-04-09T17:58:04.685Z,15.38
2023-04-09T18:00:31.674Z,16.05
2023-04-09T18:02:58.851Z,15.68
2023-04-09T18:05:26.055Z,15.60
2023-04-09T18:07:54.917Z,15.43
2023-04-09T18:10:21.677Z,16.70
2023-04-09T18:12:48.228Z,16.77
2023-04-09T18:15:16.518Z,16.60
2023-04-09T18:17:43.045Z,15.50
2023-04-09T18:20:09.810Z,17.05
2023-04-09T18:22:36.355Z,15.32
2023-04-09T18:25:02.848Z,17.13
2023-04-09T18:27:29.339Z,16.70
2023-04-09T18:29:56.441Z,16.02
2023-04-09T18:32:23.743Z,15.65
2023-04-09T18:34:50.339Z,16.42
2023-04-09T18:37:17.335Z,16.38
2023-04-09T18:39:44.310Z,16.00
2023-04-09T18:42:10.904Z,15.90
2023-04-09T18:44:37.788Z,17.73
2023-04-09T18:47:05.787Z,16.08
2023-04-09T18:49:33.076Z,17.65
2023-04-09T18:51:59.594Z,17.55
2023-04-09T18:54:26.242Z,17.20
2023-04-09T18:56:52.786Z,17.85
2023-04-09T18:59:19.333Z,16.55
2023-04-09T19:01:45.927Z,16.58
2023-04-09T19:04:12.732Z,19.05
2023-04-09T19:06:39.358Z,19.25
2023-04-09T19:09:05.887Z,18.50
2023-04-09T19:11:32.417Z,19.13
2023-04-09T19:13:59.168Z,19.25
2023-04-09T19:16:25.681Z,20.35
2023-04-09T19:18:52.465Z,20.48
2023-04-09T19:21:19.306Z,19.90
2023-04-09T19:23:45.882Z,19.95
2023-04-09T19:26:12.449Z,19.08
2023-04-09T19:28:38.903Z,21.52
2023-04-09T19:31:06.027Z,20.83
2023-04-09T19:33:32.523Z,20.30
2023-04-09T19:35:59.320Z,19.58
2023-04-09T19:38:26.267Z,21.27
2023-04-09T19:40:52.785Z,20.83
2023-04-09T19:43:19.332Z,20.63
2023-04-09T19:45:45.942Z,21.13
2023-04-09T19:48:12.569Z,20.73
2023-04-09T19:50:41.054Z,20.27
2023-04-09T19:53:07.596Z,22.35
2023-04-09T19:55:34.850Z,21.02
2023-04-09T19:58:01.834Z,22.30
2023-04-09T20:00:28.796Z,20.92
2023-04-09T20:02:55.892Z,21.70
2023-04-09T20:05:22.962Z,22.35
2023-04-09T20:07:49.765Z,22.13
2023-04-09T20:10:16.448Z,21.23
2023-04-09T20:12:46.566Z,21.00
2023-04-09T20:15:13.182Z,22.13
2023-04-09T20:17:41.678Z,21.33
2023-04-09T20:20:08.322Z,23.08
2023-04-09T20:22:34.803Z,21.27
2023-04-09T20:25:01.476Z,22.52
2023-04-09T20:27:28.253Z,20.38
2023-04-09T20:29:54.924Z,22.50
2023-04-09T20:32:21.459Z,22.15
2023-04-09T20:38:46.137Z,22.30
2023-04-09T20:41:12.761Z,22.77
2023-04-09T20:43:39.363Z,22.60
2023-04-09T20:46:06.152Z,22.05
2023-04-09T20:48:32.885Z,23.05
2023-04-09T20:50:59.481Z,22.73
2023-04-09T20:53:26.157Z,22.98
2023-04-09T20:55:53.465Z,23.60
2023-04-09T20:58:20.064Z,23.92
2023-04-09T21:00:46.754Z,23.88
2023-04-09T21:03:14.395Z,23.25
2023-04-09T21:05:41.604Z,22.95
2023-04-09T21:08:08.313Z,22.00
2023-04-09T21:10:34.908Z,23.63
2023-04-09T21:13:01.492Z,24.20
2023-04-09T21:15:28.080Z,23.08
2023-04-09T21:17:54.792Z,23.17
2023-04-09T21:20:21.465Z,23.13
2023-04-09T21:22:48.095Z,24.35
2023-04-09T21:25:15.589Z,21.88
2023-04-09T21:27:42.549Z,22.27
2023-04-09T21:30:09.614Z,22.10
2023-04-09T21:32:38.513Z,21.95
2023-04-09T21:35:05.823Z,23.25
2023-04-09T21:37:33.728Z,23.58
2023-04-09T21:40:00.350Z,22.92
2023-04-09T21:42:27.589Z,22.75
2023-04-09T21:44:54.218Z,23.00
2023-04-09T21:47:20.965Z,22.50
2023-04-09T21:49:47.772Z,20.95
2023-04-09T21:52:15.070Z,21.67
2023-04-09T21:54:42.461Z,21.75
2023-04-09T21:57:09.698Z,22.08
2023-04-09T21:59:36.675Z,22.23
2023-04-09T22:02:04.719Z,23.52
2023-04-09T22:04:31.512Z,22.90
2023-04-09T22:06:58.309Z,21.95
2023-04-09T22:09:24.946Z,20.45
2023-04-09T22:11:52.857Z,21.58
2023-04-09T22:14:20.571Z,21.17
2023-04-09T22:16:47.664Z,21.48
2023-04-09T22:19:14.312Z,20.88
2023-04-09T22:21:41.677Z,21.23
2023-04-09T22:24:08.511Z,20.15
2023-04-09T22:26:35.287Z,19.90
2023-04-09T22:29:04.336Z,21.33
2023-04-09T22:31:32.294Z,18.23
2023-04-09T22:34:10.025Z,19.02
2023-04-09T22:36:40.223Z,19.38
2023-04-09T22:39:06.901Z,20.58
2023-04-09T22:41:33.545Z,20.33
2023-04-09T22:44:00.147Z,20.27
2023-04-09T22:46:26.808Z,20.90
2023-04-09T22:48:53.531Z,20.75
2023-04-09T22:51:20.267Z,20.88
2023-04-09T22:53:47.072Z,20.95
2023-04-09T22:56:13.783Z,20.23
2023-04-09T22:58:40.393Z,20.50
2023-04-09T23:01:07.344Z,20.88
2023-04-09T23:03:34.037Z,20.08
2023-04-09T23:06:00.768Z,20.90
2023-04-09T23:08:27.371Z,19.48
2023-04-09T23:10:55.952Z,20.80
2023-04-09T23:13:22.697Z,21.65
2023-04-09T23:15:49.295Z,20.65
2023-04-09T23:18:16.038Z,17.50
2023-04-09T23:20:42.666Z,16.77
2023-04-09T23:23:09.313Z,18.85
2023-04-09T23:25:36.215Z,17.20
2023-04-09T23:28:02.791Z,18.73
2023-04-09T23:30:29.519Z,19.42
2023-04-09T23:32:57.645Z,18.38
2023-04-09T23:35:24.623Z,19.50
2023-04-09T23:37:51.289Z,20.17
2023-04-09T23:40:18.125Z,19.55
2023-04-09T23:42:45.751Z,18.15
2023-04-09T23:45:12.347Z,18.80
2023-04-09T23:47:39.062Z,20.48
2023-04-09T23:50:07.802Z,19.77
2023-04-09T23:52:36.547Z,20.55
2023-04-09T23:55:04.413Z,20.90
2023-04-09T23:57:31.373Z,19.70
2023-04-09T23:59:58.025Z,19.48
